createdAt,value
2022-08-03T00:00:23.827Z,13.10
2022-08-03T00:00:58.498Z,13.00
2022-08-03T00:01:33.526Z,12.95
2022-08-03T00:02:08.354Z,12.65
2022-08-03T00:02:43.157Z,12.65
2022-08-03T00:03:17.567Z,13.52
2022-08-03T00:03:51.876Z,15.00
2022-08-03T00:04:33.929Z,12.35
2022-08-03T00:05:09.705Z,14.20
2022-08-03T00:06:03.863Z,14.15
2022-08-03T00:06:39.209Z,12.02
2022-08-03T00:07:14.900Z,12.43
2022-08-03T00:07:49.554Z,13.45
2022-08-03T00:08:23.348Z,13.43
2022-08-03T00:08:59.573Z,14.00
2022-08-03T00:09:35.675Z,13.13
2022-08-03T00:10:11.054Z,12.80
2022-08-03T00:10:46.580Z,11.65
2022-08-03T00:11:21.105Z,12.57
2022-08-03T00:11:55.743Z,12.80
2022-08-03T00:12:31.384Z,11.73
2022-08-03T00:13:05.133Z,11.82
2022-08-03T00:13:40.173Z,12.73
2022-08-03T00:14:14.708Z,12.82
2022-08-03T00:14:48.949Z,12.95
2022-08-03T00:15:22.899Z,13.52
2022-08-03T00:15:57.646Z,12.70
2022-08-03T00:16:31.457Z,13.10
2022-08-03T00:17:05.581Z,13.93
2022-08-03T00:17:53.443Z,12.70
2022-08-03T00:18:28.985Z,12.32
2022-08-03T00:19:03.434Z,12.55
2022-08-03T00:19:38.223Z,13.30
2022-08-03T00:20:13.667Z,13.52
2022-08-03T00:20:48.139Z,11.98
2022-08-03T00:21:22.833Z,12.27
2022-08-03T00:21:57.869Z,12.20
2022-08-03T00:22:32.096Z,13.00
2022-08-03T00:23:07.767Z,12.80
2022-08-03T00:23:51.887Z,12.52
2022-08-03T00:24:28.986Z,12.32
2022-08-03T00:25:04.405Z,11.68
2022-08-03T00:25:38.093Z,11.82
2022-08-03T00:26:13.229Z,12.70
2022-08-03T00:26:47.276Z,11.50
2022-08-03T00:27:21.556Z,11.88
2022-08-03T00:27:56.317Z,11.95
2022-08-03T00:28:32.333Z,11.65
2022-08-03T00:29:08.263Z,11.40
2022-08-03T00:30:00.094Z,12.32
2022-08-03T00:30:36.402Z,11.88
2022-08-03T00:31:13.266Z,13.23
2022-08-03T00:31:52.669Z,11.30
2022-08-03T00:32:34.133Z,11.75
2022-08-03T00:33:08.426Z,12.85
2022-08-03T00:33:59.206Z,11.75
2022-08-03T00:34:57.639Z,11.63
2022-08-03T00:35:50.184Z,12.07
2022-08-03T00:36:26.289Z,13.25
2022-08-03T00:37:01.783Z,11.90
2022-08-03T00:37:40.789Z,12.35
2022-08-03T00:38:16.244Z,12.27
2022-08-03T00:38:51.013Z,12.27
2022-08-03T00:39:24.612Z,11.27
2022-08-03T00:39:59.954Z,11.90
2022-08-03T00:40:35.834Z,12.63
2022-08-03T00:41:11.034Z,12.68
2022-08-03T00:41:51.221Z,12.70
2022-08-03T00:42:28.547Z,11.05
2022-08-03T00:43:05.265Z,12.13
2022-08-03T00:43:38.742Z,11.85
2022-08-03T00:44:13.851Z,12.02
2022-08-03T00:44:48.552Z,12.05
2022-08-03T00:45:24.186Z,11.88
2022-08-03T00:45:59.084Z,12.63
2022-08-03T00:46:35.380Z,11.77
2022-08-03T00:47:09.556Z,12.45
2022-08-03T00:47:43.164Z,11.45
2022-08-03T00:48:19.293Z,11.27
2022-08-03T00:49:04.754Z,11.35
2022-08-03T00:49:39.125Z,12.55
2022-08-03T00:50:16.992Z,11.10
2022-08-03T00:50:54.074Z,11.57
2022-08-03T00:51:29.590Z,12.27
2022-08-03T00:52:07.759Z,11.48
2022-08-03T00:52:43.764Z,11.82
2022-08-03T00:53:18.377Z,11.27
2022-08-03T00:53:52.947Z,11.07
2022-08-03T00:54:27.054Z,11.80
2022-08-03T00:55:02.898Z,11.82
2022-08-03T00:55:39.758Z,10.57
2022-08-03T00:56:15.705Z,11.60
2022-08-03T00:56:59.556Z,11.40
2022-08-03T00:57:33.886Z,12.13
2022-08-03T00:58:08.305Z,11.50
2022-08-03T00:58:43.893Z,11.00
2022-08-03T00:59:19.267Z,12.10
2022-08-03T00:59:54.328Z,11.73
2022-08-03T01:00:29.460Z,11.48
2022-08-03T01:01:05.294Z,12.13
2022-08-03T01:01:39.527Z,11.63
2022-08-03T01:02:14.752Z,11.07
2022-08-03T01:02:49.113Z,12.20
2022-08-03T01:03:22.809Z,12.43
2022-08-03T01:03:57.588Z,12.07
2022-08-03T01:04:31.100Z,11.45
2022-08-03T01:05:06.852Z,11.38
2022-08-03T01:05:44.995Z,13.15
2022-08-03T01:06:20.087Z,11.32
2022-08-03T01:06:58.281Z,11.65
2022-08-03T01:07:40.103Z,11.13
2022-08-03T01:08:17.106Z,22.65
2022-08-03T01:08:56.219Z,12.52
2022-08-03T01:09:34.264Z,11.85
2022-08-03T01:10:12.444Z,11.63
2022-08-03T01:10:52.014Z,11.55
2022-08-03T01:11:32.548Z,10.82
2022-08-03T01:12:11.022Z,10.40
2022-08-03T01:12:47.220Z,11.65
2022-08-03T01:14:01.898Z,11.13
2022-08-03T01:14:23.090Z,10.05
2022-08-03T01:15:05.076Z,10.30
2022-08-03T01:15:42.773Z,11.40
2022-08-03T01:16:20.534Z,12.18
2022-08-03T01:17:01.914Z,10.75
2022-08-03T01:17:38.483Z,11.07
2022-08-03T01:18:18.391Z,10.25
2022-08-03T01:18:56.198Z,11.27
2022-08-03T01:19:39.115Z,11.75
2022-08-03T01:20:16.273Z,11.10
2022-08-03T01:20:53.903Z,11.05
2022-08-03T01:21:29.557Z,11.77
2022-08-03T01:22:10.398Z,10.52
2022-08-03T01:23:00.829Z,11.45
2022-08-03T01:23:43.701Z,10.75
2022-08-03T01:24:25.646Z,11.60
2022-08-03T01:25:10.156Z,11.45
2022-08-03T01:25:58.009Z,11.10
2022-08-03T01:26:56.659Z,10.93
2022-08-03T01:27:33.058Z,11.07
2022-08-03T01:28:17.100Z,11.15
2022-08-03T01:28:59.931Z,12.05
2022-08-03T01:29:59.191Z,11.10
2022-08-03T01:30:36.812Z,11.40
2022-08-03T01:31:12.890Z,10.95
2022-08-03T01:32:59.859Z,11.07
2022-08-03T01:33:00.127Z,10.52
2022-08-03T01:33:39.402Z,11.82
2022-08-03T01:34:17.236Z,12.85
2022-08-03T01:34:54.611Z,11.20
2022-08-03T01:35:30.717Z,10.93
2022-08-03T01:36:06.759Z,11.60
2022-08-03T01:36:42.611Z,11.07
2022-08-03T01:37:20.336Z,10.48
2022-08-03T01:37:56.570Z,10.93
2022-08-03T01:38:32.461Z,11.95
2022-08-03T01:39:09.637Z,11.93
2022-08-03T01:39:44.988Z,10.20
2022-08-03T01:40:19.190Z,11.00
2022-08-03T01:40:56.075Z,11.18
2022-08-03T01:41:33.363Z,11.30
2022-08-03T01:42:10.430Z,12.98
2022-08-03T01:42:48.183Z,12.95
2022-08-03T01:44:27.043Z,12.80
2022-08-03T01:44:29.641Z,10.65
2022-08-03T01:45:06.754Z,11.80
2022-08-03T01:45:43.344Z,11.90
2022-08-03T01:46:18.012Z,11.10
2022-08-03T01:46:51.726Z,12.02
2022-08-03T01:47:26.444Z,10.95
2022-08-03T01:48:02.457Z,10.93
2022-08-03T01:48:38.433Z,10.57
2022-08-03T01:49:13.828Z,12.68
2022-08-03T01:49:49.157Z,11.48
2022-08-03T01:50:26.038Z,10.20
2022-08-03T01:51:01.169Z,10.23
2022-08-03T01:51:56.156Z,11.55
2022-08-03T01:52:30.545Z,11.38
2022-08-03T01:53:05.902Z,9.93
2022-08-03T01:53:43.897Z,10.75
2022-08-03T01:54:18.415Z,11.30
2022-08-03T01:54:54.679Z,10.40
2022-08-03T01:55:30.054Z,11.38
2022-08-03T01:56:05.841Z,10.98
2022-08-03T01:56:42.988Z,10.73
2022-08-03T01:57:17.572Z,11.68
2022-08-03T01:58:05.410Z,12.02
2022-08-03T01:58:42.484Z,11.48
2022-08-03T01:59:18.398Z,12.38
2022-08-03T01:59:54.796Z,11.48
2022-08-03T02:00:31.443Z,11.13
2022-08-03T02:01:08.068Z,10.70
2022-08-03T02:02:16.101Z,11.05
2022-08-03T02:02:39.051Z,10.30
2022-08-03T02:03:17.121Z,10.18
2022-08-03T02:04:00.243Z,10.32
2022-08-03T02:04:36.424Z,11.23
2022-08-03T02:05:12.948Z,9.90
2022-08-03T02:05:47.335Z,10.95
2022-08-03T02:07:01.506Z,10.73
2022-08-03T02:07:17.281Z,10.52
2022-08-03T02:07:51.756Z,12.68
2022-08-03T02:08:26.166Z,11.57
2022-08-03T02:09:00.752Z,11.85
2022-08-03T02:09:37.003Z,11.77
2022-08-03T02:10:12.826Z,11.95
2022-08-03T02:10:49.705Z,11.02
2022-08-03T02:11:23.595Z,11.70
2022-08-03T02:11:59.731Z,12.50
2022-08-03T02:12:35.513Z,13.65
2022-08-03T02:13:10.429Z,13.48
2022-08-03T02:13:45.523Z,11.40
2022-08-03T02:14:22.104Z,11.85
2022-08-03T02:14:56.705Z,12.35
2022-08-03T02:15:33.214Z,12.40
2022-08-03T02:16:09.328Z,11.07
2022-08-03T02:16:45.943Z,10.63
2022-08-03T02:17:39.618Z,10.95
2022-08-03T02:18:14.838Z,12.23
2022-08-03T02:18:51.019Z,10.88
2022-08-03T02:19:25.504Z,10.43
2022-08-03T02:20:01.280Z,11.60
2022-08-03T02:20:38.654Z,12.13
2022-08-03T02:21:13.067Z,11.52
2022-08-03T02:22:11.954Z,11.85
2022-08-03T02:22:46.013Z,11.15
2022-08-03T02:23:21.903Z,12.38
2022-08-03T02:23:58.013Z,15.55
2022-08-03T02:24:33.368Z,11.30
2022-08-03T02:25:09.269Z,13.15
2022-08-03T02:25:48.334Z,12.75
2022-08-03T02:26:24.403Z,11.68
2022-08-03T02:26:58.464Z,12.10
2022-08-03T02:27:34.546Z,13.30
2022-08-03T02:28:14.475Z,12.98
2022-08-03T02:28:52.448Z,12.38
2022-08-03T02:29:38.830Z,11.55
2022-08-03T02:30:16.420Z,11.48
2022-08-03T02:30:54.227Z,11.75
2022-08-03T02:31:31.693Z,13.50
2022-08-03T02:32:07.392Z,12.75
2022-08-03T02:32:45.037Z,11.45
2022-08-03T02:33:21.235Z,10.82
2022-08-03T02:33:56.654Z,11.57
2022-08-03T02:34:31.108Z,12.20
2022-08-03T02:35:09.107Z,13.52
2022-08-03T02:35:45.498Z,11.20
2022-08-03T02:36:21.871Z,12.50
2022-08-03T02:36:56.248Z,12.13
2022-08-03T02:37:33.934Z,11.30
2022-08-03T02:38:09.320Z,11.80
2022-08-03T02:38:44.383Z,12.50
2022-08-03T02:39:22.072Z,12.85
2022-08-03T02:39:59.764Z,10.88
2022-08-03T02:40:35.628Z,13.75
2022-08-03T02:41:10.987Z,11.60
2022-08-03T02:41:47.565Z,11.63
2022-08-03T02:42:25.109Z,11.32
2022-08-03T02:43:00.846Z,11.18
2022-08-03T02:43:40.219Z,10.98
2022-08-03T02:44:33.411Z,11.10
2022-08-03T02:45:09.749Z,11.18
2022-08-03T02:45:49.173Z,11.18
2022-08-03T02:46:26.899Z,10.50
2022-08-03T02:47:03.282Z,10.93
2022-08-03T02:47:53.952Z,11.52
2022-08-03T02:48:30.615Z,10.88
2022-08-03T02:49:41.156Z,11.18
2022-08-03T02:50:02.375Z,12.90
2022-08-03T02:50:36.639Z,11.80
2022-08-03T02:51:11.884Z,11.55
2022-08-03T02:51:47.845Z,11.85
2022-08-03T02:52:22.732Z,10.63
2022-08-03T02:52:58.779Z,11.65
2022-08-03T02:53:34.153Z,11.88
2022-08-03T02:54:09.110Z,11.18
2022-08-03T02:54:43.389Z,11.57
2022-08-03T02:55:18.810Z,11.23
2022-08-03T02:55:54.886Z,11.32
2022-08-03T02:56:30.036Z,11.68
2022-08-03T02:57:03.544Z,12.07
2022-08-03T02:57:39.857Z,12.13
2022-08-03T02:58:16.122Z,11.07
2022-08-03T02:58:51.809Z,12.73
2022-08-03T02:59:27.034Z,11.65
2022-08-03T03:00:03.205Z,10.93
2022-08-03T03:00:39.571Z,12.45
2022-08-03T03:01:13.916Z,12.90
2022-08-03T03:01:50.473Z,12.20
2022-08-03T03:02:27.093Z,12.15
2022-08-03T03:03:01.445Z,10.55
2022-08-03T03:03:38.609Z,11.73
2022-08-03T03:04:20.984Z,10.57
2022-08-03T03:05:53.244Z,11.70
2022-08-03T03:05:57.538Z,11.73
2022-08-03T03:06:32.080Z,10.75
2022-08-03T03:07:07.373Z,15.85
2022-08-03T03:07:52.007Z,12.98
2022-08-03T03:08:29.013Z,12.00
2022-08-03T03:09:03.556Z,11.43
2022-08-03T03:09:43.085Z,12.50
2022-08-03T03:10:18.126Z,11.23
2022-08-03T03:10:55.334Z,12.40
2022-08-03T03:11:31.456Z,12.68
2022-08-03T03:12:06.957Z,13.15
2022-08-03T03:12:40.438Z,12.18
2022-08-03T03:13:15.993Z,11.85
2022-08-03T03:13:51.189Z,11.52
2022-08-03T03:14:33.533Z,11.27
2022-08-03T03:15:09.133Z,10.63
2022-08-03T03:15:43.887Z,11.27
2022-08-03T03:16:18.712Z,11.23
2022-08-03T03:16:57.679Z,12.02
2022-08-03T03:17:34.820Z,12.10
2022-08-03T03:18:11.101Z,11.98
2022-08-03T03:18:47.654Z,11.70
2022-08-03T03:19:21.865Z,11.93
2022-08-03T03:19:57.452Z,11.98
2022-08-03T03:20:33.817Z,12.55
2022-08-03T03:21:08.571Z,12.68
2022-08-03T03:21:42.390Z,12.60
2022-08-03T03:22:17.592Z,12.40
2022-08-03T03:22:52.564Z,11.63
2022-08-03T03:23:26.853Z,11.07
2022-08-03T03:24:03.558Z,11.48
2022-08-03T03:24:37.695Z,15.35
2022-08-03T03:25:12.194Z,15.57
2022-08-03T03:25:47.704Z,12.23
2022-08-03T03:26:22.204Z,11.07
2022-08-03T03:26:56.781Z,12.20
2022-08-03T03:27:31.480Z,11.63
2022-08-03T03:28:06.636Z,11.38
2022-08-03T03:28:40.304Z,10.68
2022-08-03T03:29:15.385Z,10.77
2022-08-03T03:29:50.919Z,16.90
2022-08-03T03:30:25.463Z,21.48
2022-08-03T03:31:01.427Z,12.10
2022-08-03T03:31:36.843Z,11.00
2022-08-03T03:32:11.351Z,10.52
2022-08-03T03:32:52.580Z,11.70
2022-08-03T03:33:28.664Z,11.35
2022-08-03T03:34:03.544Z,11.02
2022-08-03T03:34:38.388Z,10.93
2022-08-03T03:35:12.775Z,11.00
2022-08-03T03:35:47.988Z,10.25
2022-08-03T03:36:23.505Z,10.43
2022-08-03T03:36:58.627Z,10.57
2022-08-03T03:37:33.493Z,10.25
2022-08-03T03:38:09.541Z,10.63
2022-08-03T03:38:43.351Z,10.63
2022-08-03T03:39:19.316Z,10.73
2022-08-03T03:39:54.641Z,9.88
2022-08-03T03:40:28.953Z,11.18
2022-08-03T03:41:04.304Z,12.18
2022-08-03T03:41:38.623Z,10.98
2022-08-03T03:42:12.869Z,11.07
2022-08-03T03:42:49.579Z,10.57
2022-08-03T03:43:24.876Z,11.18
2022-08-03T03:43:58.838Z,11.85
2022-08-03T03:44:33.878Z,10.52
2022-08-03T03:45:08.417Z,10.70
2022-08-03T03:45:43.259Z,9.82
2022-08-03T03:46:20.047Z,11.18
2022-08-03T03:46:55.157Z,10.52
2022-08-03T03:47:32.734Z,12.48
2022-08-03T03:48:10.106Z,12.85
2022-08-03T03:48:44.818Z,30.25
2022-08-03T03:49:18.891Z,19.20
2022-08-03T03:49:54.353Z,24.23
2022-08-03T03:50:29.040Z,22.63
2022-08-03T03:51:02.849Z,10.32
2022-08-03T03:51:37.093Z,9.48
2022-08-03T03:52:12.308Z,9.85
2022-08-03T03:52:47.371Z,8.60
2022-08-03T03:53:22.381Z,9.10
2022-08-03T03:53:57.098Z,8.88
2022-08-03T03:54:42.032Z,8.95
2022-08-03T03:55:19.049Z,8.95
2022-08-03T03:55:59.603Z,8.88
2022-08-03T03:56:38.296Z,7.85
2022-08-03T03:57:13.827Z,8.15
2022-08-03T03:57:48.888Z,8.18
2022-08-03T03:58:23.537Z,8.88
2022-08-03T03:58:58.923Z,8.10
2022-08-03T03:59:32.674Z,8.65
2022-08-03T04:00:12.922Z,8.00
2022-08-03T04:00:47.544Z,8.00
2022-08-03T04:01:21.907Z,8.50
2022-08-03T04:01:59.228Z,8.95
2022-08-03T04:02:33.809Z,8.55
2022-08-03T04:03:14.399Z,10.27
2022-08-03T04:03:48.457Z,8.68
2022-08-03T04:04:41.229Z,8.40
2022-08-03T04:05:34.526Z,8.70
2022-08-03T04:06:26.293Z,8.43
2022-08-03T04:07:18.424Z,8.68
2022-08-03T04:08:16.111Z,8.75
2022-08-03T04:09:11.107Z,8.60
2022-08-03T04:10:08.889Z,12.20
2022-08-03T04:10:59.918Z,8.40
2022-08-03T04:11:38.554Z,9.65
2022-08-03T04:12:13.519Z,9.05
2022-08-03T04:12:50.514Z,8.00
2022-08-03T04:13:24.093Z,8.80
2022-08-03T04:14:01.928Z,8.50
2022-08-03T04:14:38.157Z,7.90
2022-08-03T04:15:14.137Z,8.68
2022-08-03T04:15:50.292Z,8.10
2022-08-03T04:16:25.693Z,8.45
2022-08-03T04:17:01.593Z,9.38
2022-08-03T04:17:36.533Z,8.30
2022-08-03T04:18:14.296Z,7.95
2022-08-03T04:18:53.351Z,8.07
2022-08-03T04:19:31.322Z,7.80
2022-08-03T04:20:06.604Z,8.25
2022-08-03T04:20:42.677Z,8.27
2022-08-03T04:21:19.380Z,8.25
2022-08-03T04:21:57.234Z,8.13
2022-08-03T04:22:34.510Z,7.95
2022-08-03T04:23:13.735Z,8.27
2022-08-03T04:23:52.371Z,8.20
2022-08-03T04:24:29.359Z,8.55
2022-08-03T04:25:04.959Z,8.45
2022-08-03T04:25:42.157Z,8.35
2022-08-03T04:26:18.327Z,8.77
2022-08-03T04:26:53.043Z,7.57
2022-08-03T04:27:29.097Z,8.68
2022-08-03T04:28:08.155Z,8.77
2022-08-03T04:29:01.362Z,8.63
2022-08-03T04:29:38.666Z,8.40
2022-08-03T04:30:23.815Z,8.05
2022-08-03T04:30:57.412Z,7.75
2022-08-03T04:31:32.409Z,7.53
2022-08-03T04:32:08.733Z,8.25
2022-08-03T04:32:46.228Z,7.18
2022-08-03T04:33:30.345Z,7.68
2022-08-03T04:34:05.327Z,8.68
2022-08-03T04:34:41.589Z,7.38
2022-08-03T04:35:15.993Z,8.52
2022-08-03T04:36:01.801Z,8.50
2022-08-03T04:36:40.366Z,7.22
2022-08-03T04:37:17.742Z,7.82
2022-08-03T04:37:52.725Z,8.90
2022-08-03T04:38:27.861Z,8.63
2022-08-03T04:39:05.641Z,8.48
2022-08-03T04:39:40.717Z,8.25
2022-08-03T04:40:16.450Z,8.55
2022-08-03T04:40:55.963Z,8.25
2022-08-03T04:41:30.806Z,8.77
2022-08-03T04:42:08.635Z,7.75
2022-08-03T04:42:46.569Z,8.25
2022-08-03T04:43:20.299Z,9.18
2022-08-03T04:43:56.347Z,8.75
2022-08-03T04:44:31.416Z,7.95
2022-08-03T04:45:07.770Z,8.02
2022-08-03T04:45:42.388Z,8.65
2022-08-03T04:46:18.279Z,7.70
2022-08-03T04:46:53.262Z,7.75
2022-08-03T04:47:27.695Z,7.60
2022-08-03T04:48:03.193Z,8.00
2022-08-03T04:48:43.461Z,8.35
2022-08-03T04:49:19.354Z,8.90
2022-08-03T04:49:55.256Z,8.50
2022-08-03T04:50:29.049Z,8.25
2022-08-03T04:51:13.980Z,7.55
2022-08-03T04:51:49.422Z,8.85
2022-08-03T04:52:23.469Z,8.40
2022-08-03T04:52:57.762Z,8.75
2022-08-03T04:53:32.466Z,8.50
2022-08-03T04:54:07.868Z,8.95
2022-08-03T04:54:44.369Z,7.95
2022-08-03T04:55:28.970Z,8.38
2022-08-03T04:56:06.494Z,8.30
2022-08-03T04:56:41.465Z,8.32
2022-08-03T04:57:23.119Z,8.63
2022-08-03T04:57:57.847Z,8.35
2022-08-03T04:58:32.339Z,8.40
2022-08-03T04:59:07.204Z,8.38
2022-08-03T04:59:42.975Z,8.32
2022-08-03T05:00:19.029Z,9.43
2022-08-03T05:00:55.249Z,10.40
2022-08-03T05:01:29.636Z,8.88
2022-08-03T05:02:03.211Z,8.43
2022-08-03T05:02:38.328Z,8.68
2022-08-03T05:03:23.770Z,7.60
2022-08-03T05:04:01.066Z,8.73
2022-08-03T05:04:35.340Z,8.63
2022-08-03T05:05:09.702Z,7.85
2022-08-03T05:05:49.993Z,7.85
2022-08-03T05:06:26.900Z,8.02
2022-08-03T05:07:00.594Z,8.02
2022-08-03T05:07:46.893Z,7.75
2022-08-03T05:08:28.042Z,8.00
2022-08-03T05:09:03.880Z,8.57
2022-08-03T05:09:52.262Z,7.75
2022-08-03T05:10:29.007Z,8.60
2022-08-03T05:11:03.219Z,8.45
2022-08-03T05:11:39.252Z,8.98
2022-08-03T05:12:15.013Z,9.27
2022-08-03T05:12:52.354Z,9.43
2022-08-03T05:13:26.601Z,8.15
2022-08-03T05:14:03.282Z,8.20
2022-08-03T05:14:38.910Z,9.10
2022-08-03T05:15:13.217Z,7.28
2022-08-03T05:15:48.826Z,8.32
2022-08-03T05:16:22.567Z,7.93
2022-08-03T05:16:56.666Z,7.88
2022-08-03T05:17:35.029Z,8.57
2022-08-03T05:18:13.976Z,8.30
2022-08-03T05:18:47.765Z,7.85
2022-08-03T05:19:24.428Z,8.07
2022-08-03T05:19:59.379Z,8.55
2022-08-03T05:20:33.389Z,8.38
2022-08-03T05:21:09.009Z,7.95
2022-08-03T05:21:52.377Z,8.35
2022-08-03T05:22:27.725Z,8.20
2022-08-03T05:23:04.856Z,8.90
2022-08-03T05:23:40.600Z,8.65
2022-08-03T05:24:14.838Z,8.00
2022-08-03T05:24:49.077Z,8.80
2022-08-03T05:25:27.406Z,8.70
2022-08-03T05:26:01.519Z,8.13
2022-08-03T05:26:35.892Z,7.90
2022-08-03T05:27:12.810Z,8.80
2022-08-03T05:27:47.512Z,8.05
2022-08-03T05:28:22.626Z,9.07
2022-08-03T05:28:57.835Z,8.75
2022-08-03T05:29:32.305Z,8.35
2022-08-03T05:30:30.561Z,8.20
2022-08-03T05:31:03.072Z,9.32
2022-08-03T05:31:38.201Z,8.95
2022-08-03T05:32:12.855Z,9.27
2022-08-03T05:32:46.660Z,9.27
2022-08-03T05:33:22.029Z,9.90
2022-08-03T05:33:56.518Z,8.50
2022-08-03T05:34:32.976Z,9.15
2022-08-03T05:35:56.213Z,9.48
2022-08-03T05:36:04.628Z,9.18
2022-08-03T05:36:40.120Z,8.73
2022-08-03T05:37:13.824Z,8.23
2022-08-03T05:37:54.799Z,8.93
2022-08-03T05:38:34.970Z,9.70
2022-08-03T05:39:10.910Z,10.05
2022-08-03T05:39:45.211Z,10.13
2022-08-03T05:40:19.691Z,10.05
2022-08-03T05:40:57.176Z,11.10
2022-08-03T05:41:36.920Z,10.05
2022-08-03T05:42:11.771Z,9.68
2022-08-03T05:42:46.838Z,9.80
2022-08-03T05:43:21.433Z,9.02
2022-08-03T05:43:56.968Z,8.52
2022-08-03T05:44:32.369Z,9.27
2022-08-03T05:45:15.428Z,9.80
2022-08-03T05:46:11.673Z,8.88
2022-08-03T05:46:44.299Z,9.43
2022-08-03T05:47:19.189Z,9.45
2022-08-03T05:47:53.070Z,9.43
2022-08-03T05:48:29.931Z,9.95
2022-08-03T05:49:05.614Z,10.98
2022-08-03T05:49:40.951Z,10.00
2022-08-03T05:50:16.719Z,10.57
2022-08-03T05:50:50.631Z,9.13
2022-08-03T05:51:25.863Z,9.88
2022-08-03T05:52:12.778Z,10.13
2022-08-03T05:52:48.627Z,10.65
2022-08-03T05:53:23.469Z,11.13
2022-08-03T05:53:57.933Z,9.98
2022-08-03T05:54:56.054Z,10.07
2022-08-03T05:55:26.040Z,10.05
2022-08-03T05:56:02.738Z,10.20
2022-08-03T05:56:49.856Z,10.27
2022-08-03T05:57:24.276Z,10.45
2022-08-03T05:57:58.513Z,10.77
2022-08-03T05:58:34.763Z,11.23
2022-08-03T05:59:35.761Z,9.85
2022-08-03T06:00:05.370Z,14.20
2022-08-03T06:00:46.446Z,9.93
2022-08-03T06:01:23.461Z,9.32
2022-08-03T06:01:57.961Z,11.07
2022-08-03T06:02:32.489Z,10.60
2022-08-03T06:03:08.579Z,11.88
2022-08-03T06:03:44.144Z,11.27
2022-08-03T06:04:18.781Z,10.50
2022-08-03T06:04:55.511Z,10.50
2022-08-03T06:05:30.315Z,10.57
2022-08-03T06:06:05.177Z,9.90
2022-08-03T06:06:40.437Z,10.30
2022-08-03T06:07:14.559Z,11.27
2022-08-03T06:07:49.564Z,11.05
2022-08-03T06:08:23.879Z,10.63
2022-08-03T06:08:58.924Z,10.30
2022-08-03T06:10:34.919Z,10.50
2022-08-03T06:10:35.712Z,10.57
2022-08-03T06:11:11.683Z,10.75
2022-08-03T06:11:47.060Z,11.18
2022-08-03T06:12:22.138Z,9.73
2022-08-03T06:12:57.780Z,9.90
2022-08-03T06:13:33.214Z,10.93
2022-08-03T06:14:06.929Z,10.32
2022-08-03T06:14:40.581Z,11.05
2022-08-03T06:15:16.547Z,10.18
2022-08-03T06:15:51.375Z,10.32
2022-08-03T06:16:27.113Z,9.32
2022-08-03T06:17:02.087Z,8.80
2022-08-03T06:17:37.181Z,8.88
2022-08-03T06:18:13.209Z,8.50
2022-08-03T06:18:46.516Z,7.90
2022-08-03T06:19:21.764Z,8.10
2022-08-03T06:19:57.870Z,7.22
2022-08-03T06:20:31.872Z,7.78
2022-08-03T06:21:14.995Z,6.88
2022-08-03T06:21:50.749Z,8.02
2022-08-03T06:22:25.309Z,7.85
2022-08-03T06:23:03.666Z,7.80
2022-08-03T06:23:54.810Z,7.80
2022-08-03T06:24:29.688Z,38.05
2022-08-03T06:25:13.010Z,25.27
2022-08-03T06:25:49.321Z,9.65
2022-08-03T06:26:30.710Z,8.85
2022-08-03T06:27:06.101Z,8.18
2022-08-03T06:27:41.477Z,7.07
2022-08-03T06:28:51.264Z,7.53
2022-08-03T06:29:13.581Z,7.72
2022-08-03T06:29:49.034Z,6.70
2022-08-03T06:30:22.448Z,7.30
2022-08-03T06:30:56.882Z,8.07
2022-08-03T06:31:33.849Z,14.85
2022-08-03T06:32:09.236Z,14.35
2022-08-03T06:32:44.085Z,26.08
2022-08-03T06:34:30.626Z,21.77
2022-08-03T06:34:30.933Z,8.27
2022-08-03T06:35:12.047Z,18.88
2022-08-03T06:35:46.414Z,38.53
2022-08-03T06:36:21.017Z,42.45
2022-08-03T06:37:01.810Z,28.48
2022-08-03T06:37:44.352Z,28.33
2022-08-03T06:38:20.670Z,24.05
2022-08-03T06:38:55.282Z,22.65
2022-08-03T06:39:28.973Z,53.30
2022-08-03T06:40:04.855Z,85.22
2022-08-03T06:40:41.070Z,49.08
2022-08-03T06:41:16.475Z,10.05
2022-08-03T06:41:53.794Z,6.65
2022-08-03T06:42:28.437Z,18.83
2022-08-03T06:43:04.690Z,11.18
2022-08-03T06:44:03.965Z,12.18
2022-08-03T06:44:36.026Z,67.55
2022-08-03T06:45:13.296Z,74.55
2022-08-03T06:45:48.499Z,69.35
2022-08-03T06:46:23.310Z,10.93
2022-08-03T06:46:57.137Z,6.97
2022-08-03T06:47:32.843Z,6.00
2022-08-03T06:48:08.325Z,5.47
2022-08-03T06:48:42.865Z,5.63
2022-08-03T06:49:18.993Z,6.40
2022-08-03T06:50:16.151Z,15.95
2022-08-03T06:50:50.220Z,26.58
2022-08-03T06:52:03.377Z,8.10
2022-08-03T06:52:37.859Z,61.42
2022-08-03T06:53:19.679Z,59.03
2022-08-03T06:53:57.076Z,55.03
2022-08-03T06:54:33.196Z,49.40
2022-08-03T06:55:12.165Z,52.45
2022-08-03T06:55:49.030Z,60.63
2022-08-03T06:56:27.397Z,62.38
2022-08-03T06:57:01.656Z,53.42
2022-08-03T06:57:35.101Z,45.72
2022-08-03T06:58:10.611Z,9.40
2022-08-03T06:58:44.753Z,6.75
2022-08-03T07:00:09.728Z,6.93
2022-08-03T07:00:16.055Z,6.07
2022-08-03T07:00:50.101Z,6.30
2022-08-03T07:01:25.250Z,10.43
2022-08-03T07:01:59.409Z,43.83
2022-08-03T07:02:35.930Z,45.78
2022-08-03T07:03:11.336Z,14.73
2022-08-03T07:03:52.575Z,7.85
2022-08-03T07:04:27.055Z,8.30
2022-08-03T07:05:03.533Z,5.95
2022-08-03T07:05:38.703Z,17.55
2022-08-03T07:06:16.164Z,38.70
2022-08-03T07:06:50.936Z,14.35
2022-08-03T07:07:24.726Z,6.97
2022-08-03T07:07:59.372Z,5.35
2022-08-03T07:08:34.542Z,5.70
2022-08-03T07:09:09.010Z,5.47
2022-08-03T07:09:56.922Z,6.55
2022-08-03T07:10:32.697Z,6.53
2022-08-03T07:11:09.678Z,6.63
2022-08-03T07:11:44.310Z,19.52
2022-08-03T07:12:19.685Z,33.13
2022-08-03T07:12:56.539Z,22.25
2022-08-03T07:13:32.542Z,6.13
2022-08-03T07:14:07.093Z,5.18
2022-08-03T07:14:43.670Z,5.55
2022-08-03T07:15:20.494Z,13.35
2022-08-03T07:16:14.220Z,8.40
2022-08-03T07:16:47.839Z,5.53
2022-08-03T07:17:23.265Z,5.43
2022-08-03T07:17:58.963Z,5.85
2022-08-03T07:18:34.325Z,5.97
2022-08-03T07:19:08.087Z,6.10
2022-08-03T07:19:42.372Z,5.22
2022-08-03T07:20:18.421Z,5.55
2022-08-03T07:20:54.654Z,5.53
2022-08-03T07:21:29.675Z,7.93
2022-08-03T07:22:04.593Z,9.18
2022-08-03T07:22:40.994Z,5.60
2022-08-03T07:23:19.346Z,6.55
2022-08-03T07:23:54.073Z,5.65
2022-08-03T07:24:30.647Z,5.78
2022-08-03T07:25:05.870Z,5.13
2022-08-03T07:25:41.270Z,5.15
2022-08-03T07:26:16.405Z,5.25
2022-08-03T07:26:50.869Z,7.53
2022-08-03T07:27:25.246Z,16.33
2022-08-03T07:28:00.188Z,17.00
2022-08-03T07:28:34.680Z,18.20
2022-08-03T07:29:11.895Z,12.02
2022-08-03T07:29:50.898Z,5.43
2022-08-03T07:30:24.154Z,12.93
2022-08-03T07:31:02.470Z,19.13
2022-08-03T07:31:36.637Z,17.02
2022-08-03T07:32:10.966Z,11.82
2022-08-03T07:32:50.411Z,5.90
2022-08-03T07:34:00.374Z,5.68
2022-08-03T07:34:34.983Z,9.93
2022-08-03T07:35:24.451Z,11.60
2022-08-03T07:36:36.025Z,8.55
2022-08-03T07:37:11.164Z,5.43
2022-08-03T07:37:54.111Z,5.38
2022-08-03T07:38:29.175Z,5.10
2022-08-03T07:39:17.509Z,5.47
2022-08-03T07:39:53.196Z,6.30
2022-08-03T07:40:30.626Z,5.63
2022-08-03T07:41:04.856Z,6.20
2022-08-03T07:41:39.730Z,6.68
2022-08-03T07:42:17.306Z,4.55
2022-08-03T07:42:53.509Z,4.80
2022-08-03T07:43:30.292Z,5.78
2022-08-03T07:44:04.435Z,5.15
2022-08-03T07:44:39.412Z,4.90
2022-08-03T07:45:17.010Z,6.05
2022-08-03T07:45:50.733Z,4.75
2022-08-03T07:46:27.079Z,4.85
2022-08-03T07:47:03.368Z,4.97
2022-08-03T07:47:37.613Z,6.78
2022-08-03T07:48:13.241Z,4.93
2022-08-03T07:48:47.755Z,5.22
2022-08-03T07:49:24.159Z,8.48
2022-08-03T07:49:58.123Z,10.88
2022-08-03T07:50:32.120Z,9.32
2022-08-03T07:51:06.904Z,10.23
2022-08-03T07:51:42.553Z,10.25
2022-08-03T07:52:34.797Z,8.20
2022-08-03T07:53:11.464Z,8.10
2022-08-03T07:53:48.034Z,11.05
2022-08-03T07:54:22.934Z,7.10
2022-08-03T07:54:57.744Z,6.05
2022-08-03T07:55:32.898Z,7.75
2022-08-03T07:56:11.283Z,4.70
2022-08-03T07:56:47.194Z,11.52
2022-08-03T07:57:21.421Z,10.40
2022-08-03T07:58:02.724Z,10.20
2022-08-03T07:58:38.715Z,4.80
2022-08-03T07:59:12.881Z,4.20
2022-08-03T07:59:49.125Z,3.95
2022-08-03T08:00:46.806Z,5.45
2022-08-03T08:01:20.959Z,4.20
2022-08-03T08:01:54.772Z,4.25
2022-08-03T08:02:29.852Z,3.58
2022-08-03T08:03:04.703Z,4.05
2022-08-03T08:03:52.236Z,5.97
2022-08-03T08:04:27.797Z,4.15
2022-08-03T08:05:05.921Z,4.57
2022-08-03T08:05:40.688Z,4.38
2022-08-03T08:06:15.784Z,3.65
2022-08-03T08:06:52.369Z,5.43
2022-08-03T08:07:27.036Z,4.78
2022-08-03T08:08:02.296Z,3.78
2022-08-03T08:08:36.008Z,4.18
2022-08-03T08:09:10.386Z,4.15
2022-08-03T08:09:44.891Z,4.20